الصفحة الرئيسية
METAR-TAF:

METAR-TAF

مطار :

Pago Pago, جزر الولايات المتحدة البعيدة الصغيرة

دائرة عرض: 14-20S, خط طول: 170-43W, ارتفاع: 3 متر

مراقبة الطقس الحالي

تاريخ ووقت الإصدار 1ساعة و 4 دقيقة قبل الساعة 13:50UTC
ريح 12 عقدة من الشرق/الجنوب الشرقي
درجة الحرارة 27°درجة مئوية
الرطوبة 84%
ضغط 1012 hPa
الرؤية: 16.1 كم
غيوم متفرقة على ارتفاع 1800 قدم

METAR: NSTU 151350Z 12012KT 10SM SCT018 27/24 A2989 RMK SLP122 T02720242

زمن: 03:54 (14:54 UTC)

توقعات

تاريخ ووقت الإصدار 3ساعات و 30 دقيقة قبل الساعة 11:24UTC
التوقعات صالحة من15 الساعة 12 UTC إلى 16 الساعة 12 UTC
ريح 12 عقدة من الشرق/الجنوب الشرقي
الرؤية: 10 كم
غيوم متفرقة على ارتفاع 2000 قدم
غيوم متفرقة على ارتفاع 4000 قدم
غيوم مفككة على ارتفاع 10000 قدم
زخات في الجوار

TAF: NSTU 151124Z 1512/1612 11012KT P6SM VCSH SCT020 SCT040 BKN100

أرصاد الطقس والتوقعات من أكثر من 4000 مطار (تقارير الطقس للمطار METAR والتنبؤ بالطقس بالمطارTAF).

المحطات المتاحة هي النقط الصفراء والحمراء على الخريطة.

حرك المؤشر فوق النقطة لمعرفة اسم المحطة.

ثم انقر لمعرفة أرصاد وتوقعات الطقس.

لتغيير الخارطة: اضغط على الأزرار الخضراء مع رمز الصليب الأسود للتكبير. على الزر الأخضر مع شرطة للتصغير، أو على الأسهم الخضراء للخرائط المجاورة.


METAR-TAF: